<?xml version="1.0" encoding="UTF-8" standalone="no" ?>
<gpx xmlns="http://www.topografix.com/GPX/1/1" xmlns:xsi="http://www.w3.org/2001/XMLSchema-instance" xsi:schemaLocation="http://www.topografix.com/GPX/1/1 http://www.topografix.com/GPX/1/1/gpx.xsd" version="1.1" creator="VisuGPX - https://www.visugpx.com">
  <metadata>
    <name>01-09-2026 DOUELLE</name>
    <desc><![CDATA[Autour du Lot

Une belle balade de reprise tout autour du Lot. 




]]></desc>
  </metadata>
  <trk>
    <name><![CDATA[2026-09-01 11:30:37_1]]></name>
    <trkseg>
      <trkpt lat="44.48255" lon="1.36632">
        <ele>139.05</ele>
        <time>2026-09-01T07:13:10Z</time>
      </trkpt>
      <trkpt lat="44.48239" lon="1.36623">
        <ele>120.3</ele>
        <time>2026-09-01T07:13:32Z</time>
      </trkpt>
      <trkpt lat="44.48236" lon="1.3663">
        <ele>116.94</ele>
        <time>2026-09-01T07:13:47Z</time>
      </trkpt>
      <trkpt lat="44.48227" lon="1.3664">
        <ele>114.53</ele>
        <time>2026-09-01T07:14:06Z</time>
      </trkpt>
      <trkpt lat="44.48214" lon="1.3662">
        <ele>110.21</ele>
        <time>2026-09-01T07:14:35Z</time>
      </trkpt>
      <trkpt lat="44.48204" lon="1.36588">
        <ele>104.92</ele>
        <time>2026-09-01T07:15:00Z</time>
      </trkpt>
      <trkpt lat="44.48182" lon="1.36577">
        <ele>103.48</ele>
        <time>2026-09-01T07:15:25Z</time>
      </trkpt>
      <trkpt lat="44.48164" lon="1.36582">
        <ele>99.63</ele>
        <time>2026-09-01T07:15:52Z</time>
      </trkpt>
      <trkpt lat="44.48148" lon="1.36583">
        <ele>102.52</ele>
        <time>2026-09-01T07:16:16Z</time>
      </trkpt>
      <trkpt lat="44.4814" lon="1.36577">
        <ele>106.36</ele>
        <time>2026-09-01T07:16:35Z</time>
      </trkpt>
      <trkpt lat="44.48136" lon="1.3657">
        <ele>105.88</ele>
        <time>2026-09-01T07:16:57Z</time>
      </trkpt>
      <trkpt lat="44.48124" lon="1.36544">
        <ele>105.4</ele>
        <time>2026-09-01T07:17:24Z</time>
      </trkpt>
      <trkpt lat="44.48115" lon="1.36517">
        <ele>105.88</ele>
        <time>2026-09-01T07:17:47Z</time>
      </trkpt>
      <trkpt lat="44.48109" lon="1.36494">
        <ele>103.48</ele>
        <time>2026-09-01T07:18:11Z</time>
      </trkpt>
      <trkpt lat="44.48097" lon="1.36467">
        <ele>100.6</ele>
        <time>2026-09-01T07:18:39Z</time>
      </trkpt>
      <trkpt lat="44.4809" lon="1.3644">
        <ele>99.15</ele>
        <time>2026-09-01T07:19:03Z</time>
      </trkpt>
      <trkpt lat="44.48077" lon="1.36404">
        <ele>103</ele>
        <time>2026-09-01T07:19:28Z</time>
      </trkpt>
      <trkpt lat="44.48065" lon="1.36371">
        <ele>106.36</ele>
        <time>2026-09-01T07:19:53Z</time>
      </trkpt>
      <trkpt lat="44.48057" lon="1.36346">
        <ele>108.29</ele>
        <time>2026-09-01T07:20:16Z</time>
      </trkpt>
      <trkpt lat="44.48044" lon="1.36321">
        <ele>110.69</ele>
        <time>2026-09-01T07:20:40Z</time>
      </trkpt>
      <trkpt lat="44.4804" lon="1.36295">
        <ele>109.73</ele>
        <time>2026-09-01T07:21:01Z</time>
      </trkpt>
      <trkpt lat="44.48035" lon="1.36275">
        <ele>108.29</ele>
        <time>2026-09-01T07:21:25Z</time>
      </trkpt>
      <trkpt lat="44.48026" lon="1.36257">
        <ele>116.46</ele>
        <time>2026-09-01T07:21:43Z</time>
      </trkpt>
      <trkpt lat="44.48022" lon="1.36248">
        <ele>115.98</ele>
        <time>2026-09-01T07:21:59Z</time>
      </trkpt>
      <trkpt lat="44.48015" lon="1.36221">
        <ele>115.01</ele>
        <time>2026-09-01T07:22:24Z</time>
      </trkpt>
      <trkpt lat="44.48008" lon="1.36194">
        <ele>114.53</ele>
        <time>2026-09-01T07:22:46Z</time>
      </trkpt>
      <trkpt lat="44.48001" lon="1.36168">
        <ele>116.46</ele>
        <time>2026-09-01T07:23:07Z</time>
      </trkpt>
      <trkpt lat="44.47995" lon="1.36151">
        <ele>115.98</ele>
        <time>2026-09-01T07:23:23Z</time>
      </trkpt>
      <trkpt lat="44.47992" lon="1.36129">
        <ele>117.42</ele>
        <time>2026-09-01T07:23:40Z</time>
      </trkpt>
      <trkpt lat="44.47992" lon="1.36102">
        <ele>119.82</ele>
        <time>2026-09-01T07:24:01Z</time>
      </trkpt>
      <trkpt lat="44.47989" lon="1.36075">
        <ele>120.3</ele>
        <time>2026-09-01T07:24:23Z</time>
      </trkpt>
      <trkpt lat="44.47989" lon="1.36053">
        <ele>116.94</ele>
        <time>2026-09-01T07:24:45Z</time>
      </trkpt>
      <trkpt lat="44.47989" lon="1.36028">
        <ele>114.53</ele>
        <time>2026-09-01T07:25:06Z</time>
      </trkpt>
      <trkpt lat="44.47987" lon="1.36002">
        <ele>113.57</ele>
        <time>2026-09-01T07:25:24Z</time>
      </trkpt>
      <trkpt lat="44.47989" lon="1.35982">
        <ele>114.53</ele>
        <time>2026-09-01T07:25:41Z</time>
      </trkpt>
      <trkpt lat="44.47993" lon="1.35957">
        <ele>113.09</ele>
        <time>2026-09-01T07:25:58Z</time>
      </trkpt>
      <trkpt lat="44.47997" lon="1.35934">
        <ele>112.61</ele>
        <time>2026-09-01T07:26:16Z</time>
      </trkpt>
      <trkpt lat="44.48003" lon="1.35912">
        <ele>113.09</ele>
        <time>2026-09-01T07:26:34Z</time>
      </trkpt>
      <trkpt lat="44.48009" lon="1.35889">
        <ele>115.01</ele>
        <time>2026-09-01T07:26:54Z</time>
      </trkpt>
      <trkpt lat="44.48016" lon="1.35866">
        <ele>116.46</ele>
        <time>2026-09-01T07:27:14Z</time>
      </trkpt>
      <trkpt lat="44.48026" lon="1.3584">
        <ele>119.34</ele>
        <time>2026-09-01T07:27:34Z</time>
      </trkpt>
      <trkpt lat="44.4803" lon="1.35827">
        <ele>117.42</ele>
        <time>2026-09-01T07:27:44Z</time>
      </trkpt>
      <trkpt lat="44.48035" lon="1.35804">
        <ele>117.9</ele>
        <time>2026-09-01T07:28:02Z</time>
      </trkpt>
      <trkpt lat="44.48042" lon="1.35787">
        <ele>118.38</ele>
        <time>2026-09-01T07:28:18Z</time>
      </trkpt>
      <trkpt lat="44.48048" lon="1.3577">
        <ele>117.42</ele>
        <time>2026-09-01T07:28:33Z</time>
      </trkpt>
      <trkpt lat="44.48053" lon="1.35758">
        <ele>115.98</ele>
        <time>2026-09-01T07:28:46Z</time>
      </trkpt>
      <trkpt lat="44.48062" lon="1.35737">
        <ele>115.01</ele>
        <time>2026-09-01T07:29:03Z</time>
      </trkpt>
      <trkpt lat="44.48072" lon="1.35714">
        <ele>115.01</ele>
        <time>2026-09-01T07:29:25Z</time>
      </trkpt>
      <trkpt lat="44.48081" lon="1.3569">
        <ele>115.98</ele>
        <time>2026-09-01T07:29:45Z</time>
      </trkpt>
      <trkpt lat="44.48082" lon="1.3568">
        <ele>116.46</ele>
        <time>2026-09-01T07:30:02Z</time>
      </trkpt>
      <trkpt lat="44.4808" lon="1.35679">
        <ele>115.5</ele>
        <time>2026-09-01T07:30:18Z</time>
      </trkpt>
      <trkpt lat="44.48081" lon="1.3568">
        <ele>115.5</ele>
        <time>2026-09-01T07:30:31Z</time>
      </trkpt>
      <trkpt lat="44.48083" lon="1.3568">
        <ele>115.01</ele>
        <time>2026-09-01T07:30:52Z</time>
      </trkpt>
      <trkpt lat="44.48085" lon="1.3568">
        <ele>114.53</ele>
        <time>2026-09-01T07:31:11Z</time>
      </trkpt>
      <trkpt lat="44.48084" lon="1.3568">
        <ele>114.05</ele>
        <time>2026-09-01T07:31:32Z</time>
      </trkpt>
      <trkpt lat="44.48085" lon="1.35681">
        <ele>113.57</ele>
        <time>2026-09-01T07:31:58Z</time>
      </trkpt>
      <trkpt lat="44.48084" lon="1.35681">
        <ele>114.05</ele>
        <time>2026-09-01T07:32:28Z</time>
      </trkpt>
      <trkpt lat="44.48082" lon="1.35682">
        <ele>115.01</ele>
        <time>2026-09-01T07:33:01Z</time>
      </trkpt>
      <trkpt lat="44.48084" lon="1.35681">
        <ele>115.01</ele>
        <time>2026-09-01T07:33:31Z</time>
      </trkpt>
      <trkpt lat="44.48084" lon="1.35683">
        <ele>114.53</ele>
        <time>2026-09-01T07:34:03Z</time>
      </trkpt>
      <trkpt lat="44.48083" lon="1.35682">
        <ele>114.53</ele>
        <time>2026-09-01T07:34:30Z</time>
      </trkpt>
      <trkpt lat="44.48085" lon="1.35682">
        <ele>113.57</ele>
        <time>2026-09-01T07:35:01Z</time>
      </trkpt>
      <trkpt lat="44.48084" lon="1.3568">
        <ele>116.46</ele>
        <time>2026-09-01T07:35:25Z</time>
      </trkpt>
      <trkpt lat="44.48082" lon="1.35679">
        <ele>116.94</ele>
        <time>2026-09-01T07:35:42Z</time>
      </trkpt>
      <trkpt lat="44.48081" lon="1.35679">
        <ele>116.94</ele>
        <time>2026-09-01T07:36:00Z</time>
      </trkpt>
      <trkpt lat="44.48086" lon="1.35676">
        <ele>116.46</ele>
        <time>2026-09-01T07:36:10Z</time>
      </trkpt>
      <trkpt lat="44.48088" lon="1.35676">
        <ele>116.46</ele>
        <time>2026-09-01T07:36:12Z</time>
      </trkpt>
      <trkpt lat="44.48088" lon="1.35687">
        <ele>115.5</ele>
        <time>2026-09-01T07:36:19Z</time>
      </trkpt>
      <trkpt lat="44.48078" lon="1.35714">
        <ele>114.53</ele>
        <time>2026-09-01T07:36:38Z</time>
      </trkpt>
      <trkpt lat="44.48071" lon="1.35733">
        <ele>114.53</ele>
        <time>2026-09-01T07:36:54Z</time>
      </trkpt>
      <trkpt lat="44.48066" lon="1.3575">
        <ele>114.53</ele>
        <time>2026-09-01T07:37:09Z</time>
      </trkpt>
      <trkpt lat="44.48059" lon="1.3577">
        <ele>114.53</ele>
        <time>2026-09-01T07:37:26Z</time>
      </trkpt>
      <trkpt lat="44.48053" lon="1.35789">
        <ele>114.53</ele>
        <time>2026-09-01T07:37:42Z</time>
      </trkpt>
      <trkpt lat="44.48047" lon="1.35805">
        <ele>113.57</ele>
        <time>2026-09-01T07:37:56Z</time>
      </trkpt>
      <trkpt lat="44.48037" lon="1.35816">
        <ele>112.61</ele>
        <time>2026-09-01T07:38:12Z</time>
      </trkpt>
      <trkpt lat="44.48026" lon="1.35813">
        <ele>111.17</ele>
        <time>2026-09-01T07:38:26Z</time>
      </trkpt>
      <trkpt lat="44.48019" lon="1.35828">
        <ele>110.69</ele>
        <time>2026-09-01T07:38:41Z</time>
      </trkpt>
      <trkpt lat="44.48013" lon="1.35844">
        <ele>110.69</ele>
        <time>2026-09-01T07:38:55Z</time>
      </trkpt>
      <trkpt lat="44.48006" lon="1.35862">
        <ele>111.65</ele>
        <time>2026-09-01T07:39:10Z</time>
      </trkpt>
      <trkpt lat="44.48001" lon="1.35877">
        <ele>110.69</ele>
        <time>2026-09-01T07:39:23Z</time>
      </trkpt>
      <trkpt lat="44.47995" lon="1.35898">
        <ele>110.21</ele>
        <time>2026-09-01T07:39:40Z</time>
      </trkpt>
      <trkpt lat="44.47991" lon="1.35915">
        <ele>109.25</ele>
        <time>2026-09-01T07:39:55Z</time>
      </trkpt>
      <trkpt lat="44.47987" lon="1.35937">
        <ele>105.88</ele>
        <time>2026-09-01T07:40:13Z</time>
      </trkpt>
      <trkpt lat="44.47984" lon="1.35958">
        <ele>104.44</ele>
        <time>2026-09-01T07:40:30Z</time>
      </trkpt>
      <trkpt lat="44.47982" lon="1.35976">
        <ele>103.48</ele>
        <time>2026-09-01T07:40:45Z</time>
      </trkpt>
      <trkpt lat="44.4798" lon="1.35998">
        <ele>105.4</ele>
        <time>2026-09-01T07:41:00Z</time>
      </trkpt>
      <trkpt lat="44.47979" lon="1.36016">
        <ele>104.44</ele>
        <time>2026-09-01T07:41:15Z</time>
      </trkpt>
      <trkpt lat="44.47978" lon="1.36033">
        <ele>103.96</ele>
        <time>2026-09-01T07:41:30Z</time>
      </trkpt>
      <trkpt lat="44.47978" lon="1.3605">
        <ele>103.96</ele>
        <time>2026-09-01T07:41:44Z</time>
      </trkpt>
      <trkpt lat="44.47978" lon="1.3606">
        <ele>104.92</ele>
        <time>2026-09-01T07:41:56Z</time>
      </trkpt>
      <trkpt lat="44.47976" lon="1.36076">
        <ele>104.44</ele>
        <time>2026-09-01T07:42:10Z</time>
      </trkpt>
      <trkpt lat="44.47977" lon="1.36099">
        <ele>104.44</ele>
        <time>2026-09-01T07:42:29Z</time>
      </trkpt>
      <trkpt lat="44.47979" lon="1.36124">
        <ele>104.44</ele>
        <time>2026-09-01T07:42:47Z</time>
      </trkpt>
      <trkpt lat="44.4798" lon="1.36144">
        <ele>105.88</ele>
        <time>2026-09-01T07:43:02Z</time>
      </trkpt>
      <trkpt lat="44.47976" lon="1.36158">
        <ele>107.32</ele>
        <time>2026-09-01T07:43:15Z</time>
      </trkpt>
      <trkpt lat="44.47972" lon="1.36164">
        <ele>108.77</ele>
        <time>2026-09-01T07:43:27Z</time>
      </trkpt>
      <trkpt lat="44.47972" lon="1.36165">
        <ele>108.77</ele>
        <time>2026-09-01T07:43:46Z</time>
      </trkpt>
      <trkpt lat="44.47972" lon="1.36165">
        <ele>108.77</ele>
        <time>2026-09-01T07:44:09Z</time>
      </trkpt>
      <trkpt lat="44.47964" lon="1.36166">
        <ele>108.77</ele>
        <time>2026-09-01T07:44:30Z</time>
      </trkpt>
      <trkpt lat="44.47948" lon="1.36172">
        <ele>109.25</ele>
        <time>2026-09-01T07:44:49Z</time>
      </trkpt>
      <trkpt lat="44.47928" lon="1.36175">
        <ele>112.61</ele>
        <time>2026-09-01T07:45:13Z</time>
      </trkpt>
      <trkpt lat="44.47909" lon="1.36175">
        <ele>115.01</ele>
        <time>2026-09-01T07:45:32Z</time>
      </trkpt>
      <trkpt lat="44.47897" lon="1.36161">
        <ele>114.53</ele>
        <time>2026-09-01T07:45:51Z</time>
      </trkpt>
      <trkpt lat="44.4789" lon="1.36139">
        <ele>115.5</ele>
        <time>2026-09-01T07:46:11Z</time>
      </trkpt>
      <trkpt lat="44.4788" lon="1.36121">
        <ele>111.17</ele>
        <time>2026-09-01T07:46:30Z</time>
      </trkpt>
      <trkpt lat="44.47858" lon="1.36121">
        <ele>109.73</ele>
        <time>2026-09-01T07:46:52Z</time>
      </trkpt>
      <trkpt lat="44.47843" lon="1.36123">
        <ele>109.73</ele>
        <time>2026-09-01T07:47:12Z</time>
      </trkpt>
      <trkpt lat="44.47827" lon="1.3612">
        <ele>107.81</ele>
        <time>2026-09-01T07:47:31Z</time>
      </trkpt>
      <trkpt lat="44.47818" lon="1.36129">
        <ele>107.81</ele>
        <time>2026-09-01T07:47:46Z</time>
      </trkpt>
      <trkpt lat="44.47816" lon="1.36144">
        <ele>108.29</ele>
        <time>2026-09-01T07:48:00Z</time>
      </trkpt>
      <trkpt lat="44.47816" lon="1.36162">
        <ele>108.29</ele>
        <time>2026-09-01T07:48:14Z</time>
      </trkpt>
      <trkpt lat="44.47816" lon="1.36181">
        <ele>109.25</ele>
        <time>2026-09-01T07:48:28Z</time>
      </trkpt>
      <trkpt lat="44.47814" lon="1.36202">
        <ele>108.77</ele>
        <time>2026-09-01T07:48:45Z</time>
      </trkpt>
      <trkpt lat="44.47807" lon="1.36212">
        <ele>108.29</ele>
        <time>2026-09-01T07:48:56Z</time>
      </trkpt>
      <trkpt lat="44.47793" lon="1.36214">
        <ele>105.88</ele>
        <time>2026-09-01T07:49:12Z</time>
      </trkpt>
      <trkpt lat="44.47785" lon="1.36209">
        <ele>105.4</ele>
        <time>2026-09-01T07:49:26Z</time>
      </trkpt>
      <trkpt lat="44.47781" lon="1.36208">
        <ele>105.4</ele>
        <time>2026-09-01T07:49:42Z</time>
      </trkpt>
      <trkpt lat="44.47775" lon="1.36203">
        <ele>103.48</ele>
        <time>2026-09-01T07:49:59Z</time>
      </trkpt>
      <trkpt lat="44.47765" lon="1.36196">
        <ele>105.88</ele>
        <time>2026-09-01T07:50:12Z</time>
      </trkpt>
      <trkpt lat="44.47752" lon="1.3619">
        <ele>105.88</ele>
        <time>2026-09-01T07:50:30Z</time>
      </trkpt>
      <trkpt lat="44.47737" lon="1.36178">
        <ele>103.96</ele>
        <time>2026-09-01T07:50:47Z</time>
      </trkpt>
      <trkpt lat="44.47728" lon="1.36169">
        <ele>101.56</ele>
        <time>2026-09-01T07:51:02Z</time>
      </trkpt>
      <trkpt lat="44.47718" lon="1.3616">
        <ele>99.63</ele>
        <time>2026-09-01T07:51:16Z</time>
      </trkpt>
      <trkpt lat="44.47708" lon="1.3615">
        <ele>99.63</ele>
        <time>2026-09-01T07:51:29Z</time>
      </trkpt>
      <trkpt lat="44.47697" lon="1.3614">
        <ele>101.56</ele>
        <time>2026-09-01T07:51:44Z</time>
      </trkpt>
      <trkpt lat="44.47687" lon="1.36128">
        <ele>102.52</ele>
        <time>2026-09-01T07:51:59Z</time>
      </trkpt>
      <trkpt lat="44.47676" lon="1.36116">
        <ele>103.48</ele>
        <time>2026-09-01T07:52:15Z</time>
      </trkpt>
      <trkpt lat="44.47666" lon="1.36104">
        <ele>103.96</ele>
        <time>2026-09-01T07:52:30Z</time>
      </trkpt>
      <trkpt lat="44.47654" lon="1.36091">
        <ele>103.96</ele>
        <time>2026-09-01T07:52:48Z</time>
      </trkpt>
      <trkpt lat="44.47642" lon="1.3608">
        <ele>104.92</ele>
        <time>2026-09-01T07:53:04Z</time>
      </trkpt>
      <trkpt lat="44.47631" lon="1.36072">
        <ele>104.44</ele>
        <time>2026-09-01T07:53:19Z</time>
      </trkpt>
      <trkpt lat="44.47619" lon="1.36064">
        <ele>104.92</ele>
        <time>2026-09-01T07:53:35Z</time>
      </trkpt>
      <trkpt lat="44.47604" lon="1.36056">
        <ele>106.36</ele>
        <time>2026-09-01T07:53:52Z</time>
      </trkpt>
      <trkpt lat="44.47592" lon="1.36049">
        <ele>106.84</ele>
        <time>2026-09-01T07:54:07Z</time>
      </trkpt>
      <trkpt lat="44.47589" lon="1.36048">
        <ele>106.84</ele>
        <time>2026-09-01T07:54:21Z</time>
      </trkpt>
      <trkpt lat="44.47587" lon="1.36045">
        <ele>107.81</ele>
        <time>2026-09-01T07:54:36Z</time>
      </trkpt>
      <trkpt lat="44.47586" lon="1.36043">
        <ele>108.29</ele>
        <time>2026-09-01T07:55:03Z</time>
      </trkpt>
      <trkpt lat="44.47579" lon="1.36037">
        <ele>108.77</ele>
        <time>2026-09-01T07:55:17Z</time>
      </trkpt>
      <trkpt lat="44.47571" lon="1.36031">
        <ele>107.32</ele>
        <time>2026-09-01T07:55:30Z</time>
      </trkpt>
      <trkpt lat="44.47571" lon="1.36028">
        <ele>107.32</ele>
        <time>2026-09-01T07:55:46Z</time>
      </trkpt>
      <trkpt lat="44.47571" lon="1.36027">
        <ele>107.81</ele>
        <time>2026-09-01T07:55:53Z</time>
      </trkpt>
      <trkpt lat="44.47557" lon="1.3602">
        <ele>107.32</ele>
        <time>2026-09-01T07:56:09Z</time>
      </trkpt>
      <trkpt lat="44.47552" lon="1.3602">
        <ele>107.32</ele>
        <time>2026-09-01T07:56:14Z</time>
      </trkpt>
      <trkpt lat="44.47536" lon="1.36009">
        <ele>107.32</ele>
        <time>2026-09-01T07:56:31Z</time>
      </trkpt>
      <trkpt lat="44.47523" lon="1.36003">
        <ele>107.81</ele>
        <time>2026-09-01T07:56:46Z</time>
      </trkpt>
      <trkpt lat="44.47511" lon="1.35996">
        <ele>107.81</ele>
        <time>2026-09-01T07:57:01Z</time>
      </trkpt>
      <trkpt lat="44.47507" lon="1.35994">
        <ele>107.81</ele>
        <time>2026-09-01T07:57:06Z</time>
      </trkpt>
      <trkpt lat="44.47504" lon="1.35993">
        <ele>108.29</ele>
        <time>2026-09-01T07:57:08Z</time>
      </trkpt>
      <trkpt lat="44.47491" lon="1.35986">
        <ele>108.77</ele>
        <time>2026-09-01T07:57:24Z</time>
      </trkpt>
      <trkpt lat="44.47479" lon="1.35983">
        <ele>109.25</ele>
        <time>2026-09-01T07:57:39Z</time>
      </trkpt>
      <trkpt lat="44.47471" lon="1.35982">
        <ele>109.25</ele>
        <time>2026-09-01T07:57:50Z</time>
      </trkpt>
      <trkpt lat="44.47467" lon="1.3598">
        <ele>109.25</ele>
        <time>2026-09-01T07:57:55Z</time>
      </trkpt>
      <trkpt lat="44.4746" lon="1.3598">
        <ele>109.25</ele>
        <time>2026-09-01T07:58:04Z</time>
      </trkpt>
      <trkpt lat="44.47443" lon="1.35978">
        <ele>109.73</ele>
        <time>2026-09-01T07:58:21Z</time>
      </trkpt>
      <trkpt lat="44.47433" lon="1.35978">
        <ele>109.25</ele>
        <time>2026-09-01T07:58:35Z</time>
      </trkpt>
      <trkpt lat="44.47418" lon="1.35977">
        <ele>107.81</ele>
        <time>2026-09-01T07:58:51Z</time>
      </trkpt>
      <trkpt lat="44.47405" lon="1.35976">
        <ele>107.32</ele>
        <time>2026-09-01T07:59:06Z</time>
      </trkpt>
      <trkpt lat="44.47393" lon="1.35975">
        <ele>105.4</ele>
        <time>2026-09-01T07:59:20Z</time>
      </trkpt>
      <trkpt lat="44.4738" lon="1.35976">
        <ele>106.36</ele>
        <time>2026-09-01T07:59:34Z</time>
      </trkpt>
      <trkpt lat="44.47368" lon="1.35979">
        <ele>107.81</ele>
        <time>2026-09-01T07:59:49Z</time>
      </trkpt>
      <trkpt lat="44.47352" lon="1.35978">
        <ele>109.73</ele>
        <time>2026-09-01T08:00:07Z</time>
      </trkpt>
      <trkpt lat="44.47339" lon="1.35981">
        <ele>110.69</ele>
        <time>2026-09-01T08:00:21Z</time>
      </trkpt>
      <trkpt lat="44.47326" lon="1.35983">
        <ele>109.73</ele>
        <time>2026-09-01T08:00:35Z</time>
      </trkpt>
      <trkpt lat="44.47323" lon="1.35983">
        <ele>109.73</ele>
        <time>2026-09-01T08:00:38Z</time>
      </trkpt>
      <trkpt lat="44.47312" lon="1.35986">
        <ele>109.25</ele>
        <time>2026-09-01T08:00:51Z</time>
      </trkpt>
      <trkpt lat="44.47301" lon="1.35987">
        <ele>109.25</ele>
        <time>2026-09-01T08:01:05Z</time>
      </trkpt>
      <trkpt lat="44.47292" lon="1.3599">
        <ele>110.69</ele>
        <time>2026-09-01T08:01:18Z</time>
      </trkpt>
      <trkpt lat="44.47281" lon="1.35997">
        <ele>110.69</ele>
        <time>2026-09-01T08:01:32Z</time>
      </trkpt>
      <trkpt lat="44.47269" lon="1.36003">
        <ele>109.73</ele>
        <time>2026-09-01T08:01:47Z</time>
      </trkpt>
      <trkpt lat="44.47259" lon="1.36008">
        <ele>107.81</ele>
        <time>2026-09-01T08:02:01Z</time>
      </trkpt>
      <trkpt lat="44.47249" lon="1.36014">
        <ele>106.36</ele>
        <time>2026-09-01T08:02:16Z</time>
      </trkpt>
      <trkpt lat="44.47236" lon="1.36027">
        <ele>107.32</ele>
        <time>2026-09-01T08:02:33Z</time>
      </trkpt>
      <trkpt lat="44.47223" lon="1.36036">
        <ele>107.32</ele>
        <time>2026-09-01T08:02:48Z</time>
      </trkpt>
      <trkpt lat="44.47212" lon="1.36046">
        <ele>106.36</ele>
        <time>2026-09-01T08:03:04Z</time>
      </trkpt>
      <trkpt lat="44.47201" lon="1.36056">
        <ele>106.36</ele>
        <time>2026-09-01T08:03:18Z</time>
      </trkpt>
      <trkpt lat="44.47194" lon="1.36068">
        <ele>105.88</ele>
        <time>2026-09-01T08:03:31Z</time>
      </trkpt>
      <trkpt lat="44.4719" lon="1.36076">
        <ele>105.88</ele>
        <time>2026-09-01T08:03:44Z</time>
      </trkpt>
      <trkpt lat="44.47185" lon="1.36077">
        <ele>104.92</ele>
        <time>2026-09-01T08:04:04Z</time>
      </trkpt>
      <trkpt lat="44.47174" lon="1.36084">
        <ele>105.4</ele>
        <time>2026-09-01T08:04:20Z</time>
      </trkpt>
      <trkpt lat="44.47165" lon="1.36087">
        <ele>105.88</ele>
        <time>2026-09-01T08:04:32Z</time>
      </trkpt>
      <trkpt lat="44.47153" lon="1.36095">
        <ele>106.84</ele>
        <time>2026-09-01T08:04:47Z</time>
      </trkpt>
      <trkpt lat="44.47144" lon="1.36102">
        <ele>107.32</ele>
        <time>2026-09-01T08:05:00Z</time>
      </trkpt>
      <trkpt lat="44.47138" lon="1.36103">
        <ele>106.84</ele>
        <time>2026-09-01T08:05:08Z</time>
      </trkpt>
      <trkpt lat="44.47134" lon="1.36104">
        <ele>106.84</ele>
        <time>2026-09-01T08:05:14Z</time>
      </trkpt>
      <trkpt lat="44.47125" lon="1.36107">
        <ele>105.88</ele>
        <time>2026-09-01T08:05:29Z</time>
      </trkpt>
      <trkpt lat="44.4712" lon="1.36115">
        <ele>104.44</ele>
        <time>2026-09-01T08:05:45Z</time>
      </trkpt>
      <trkpt lat="44.47118" lon="1.36114">
        <ele>104.92</ele>
        <time>2026-09-01T08:06:04Z</time>
      </trkpt>
      <trkpt lat="44.47115" lon="1.36102">
        <ele>106.36</ele>
        <time>2026-09-01T08:06:16Z</time>
      </trkpt>
      <trkpt lat="44.47112" lon="1.3609">
        <ele>107.32</ele>
        <time>2026-09-01T08:06:30Z</time>
      </trkpt>
      <trkpt lat="44.47106" lon="1.36083">
        <ele>108.77</ele>
        <time>2026-09-01T08:06:43Z</time>
      </trkpt>
      <trkpt lat="44.47104" lon="1.36083">
        <ele>106.36</ele>
        <time>2026-09-01T08:06:59Z</time>
      </trkpt>
      <trkpt lat="44.47104" lon="1.36081">
        <ele>107.32</ele>
        <time>2026-09-01T08:07:23Z</time>
      </trkpt>
      <trkpt lat="44.47103" lon="1.36082">
        <ele>108.29</ele>
        <time>2026-09-01T08:07:38Z</time>
      </trkpt>
      <trkpt lat="44.47104" lon="1.3608">
        <ele>108.29</ele>
        <time>2026-09-01T08:08:11Z</time>
      </trkpt>
      <trkpt lat="44.47104" lon="1.36078">
        <ele>111.17</ele>
        <time>2026-09-01T08:08:39Z</time>
      </trkpt>
      <trkpt lat="44.47105" lon="1.36079">
        <ele>113.09</ele>
        <time>2026-09-01T08:09:04Z</time>
      </trkpt>
      <trkpt lat="44.47106" lon="1.3608">
        <ele>111.65</ele>
        <time>2026-09-01T08:09:38Z</time>
      </trkpt>
      <trkpt lat="44.47105" lon="1.3608">
        <ele>112.61</ele>
        <time>2026-09-01T08:10:17Z</time>
      </trkpt>
      <trkpt lat="44.47105" lon="1.36081">
        <ele>111.17</ele>
        <time>2026-09-01T08:10:42Z</time>
      </trkpt>
      <trkpt lat="44.47105" lon="1.36079">
        <ele>110.69</ele>
        <time>2026-09-01T08:11:17Z</time>
      </trkpt>
      <trkpt lat="44.47105" lon="1.36082">
        <ele>108.77</ele>
        <time>2026-09-01T08:11:38Z</time>
      </trkpt>
      <trkpt lat="44.47105" lon="1.36081">
        <ele>108.29</ele>
        <time>2026-09-01T08:12:04Z</time>
      </trkpt>
      <trkpt lat="44.47105" lon="1.36083">
        <ele>109.25</ele>
        <time>2026-09-01T08:12:29Z</time>
      </trkpt>
      <trkpt lat="44.47108" lon="1.36083">
        <ele>109.25</ele>
        <time>2026-09-01T08:12:44Z</time>
      </trkpt>
      <trkpt lat="44.47114" lon="1.36087">
        <ele>110.69</ele>
        <time>2026-09-01T08:13:10Z</time>
      </trkpt>
      <trkpt lat="44.4712" lon="1.36102">
        <ele>111.17</ele>
        <time>2026-09-01T08:13:25Z</time>
      </trkpt>
      <trkpt lat="44.47123" lon="1.36116">
        <ele>110.21</ele>
        <time>2026-09-01T08:13:41Z</time>
      </trkpt>
      <trkpt lat="44.47123" lon="1.36119">
        <ele>111.65</ele>
        <time>2026-09-01T08:14:01Z</time>
      </trkpt>
      <trkpt lat="44.47123" lon="1.36119">
        <ele>110.21</ele>
        <time>2026-09-01T08:14:21Z</time>
      </trkpt>
      <trkpt lat="44.47128" lon="1.36127">
        <ele>110.21</ele>
        <time>2026-09-01T08:14:36Z</time>
      </trkpt>
      <trkpt lat="44.47128" lon="1.36128">
        <ele>111.65</ele>
        <time>2026-09-01T08:14:49Z</time>
      </trkpt>
      <trkpt lat="44.47131" lon="1.36136">
        <ele>108.77</ele>
        <time>2026-09-01T08:15:02Z</time>
      </trkpt>
      <trkpt lat="44.47134" lon="1.36143">
        <ele>107.81</ele>
        <time>2026-09-01T08:15:17Z</time>
      </trkpt>
      <trkpt lat="44.47136" lon="1.3615">
        <ele>108.29</ele>
        <time>2026-09-01T08:15:33Z</time>
      </trkpt>
      <trkpt lat="44.4714" lon="1.36157">
        <ele>107.32</ele>
        <time>2026-09-01T08:15:51Z</time>
      </trkpt>
      <trkpt lat="44.47143" lon="1.36165">
        <ele>108.29</ele>
        <time>2026-09-01T08:16:07Z</time>
      </trkpt>
      <trkpt lat="44.47147" lon="1.36173">
        <ele>108.29</ele>
        <time>2026-09-01T08:16:24Z</time>
      </trkpt>
      <trkpt lat="44.47149" lon="1.3618">
        <ele>110.69</ele>
        <time>2026-09-01T08:16:39Z</time>
      </trkpt>
      <trkpt lat="44.47152" lon="1.36185">
        <ele>110.21</ele>
        <time>2026-09-01T08:16:57Z</time>
      </trkpt>
      <trkpt lat="44.47156" lon="1.36197">
        <ele>107.81</ele>
        <time>2026-09-01T08:17:14Z</time>
      </trkpt>
      <trkpt lat="44.47158" lon="1.36204">
        <ele>106.84</ele>
        <time>2026-09-01T08:17:28Z</time>
      </trkpt>
      <trkpt lat="44.4716" lon="1.36206">
        <ele>105.4</ele>
        <time>2026-09-01T08:17:48Z</time>
      </trkpt>
      <trkpt lat="44.47162" lon="1.36206">
        <ele>105.88</ele>
        <time>2026-09-01T08:18:11Z</time>
      </trkpt>
      <trkpt lat="44.47165" lon="1.36224">
        <ele>103</ele>
        <time>2026-09-01T08:18:27Z</time>
      </trkpt>
      <trkpt lat="44.47166" lon="1.3623">
        <ele>102.04</ele>
        <time>2026-09-01T08:18:32Z</time>
      </trkpt>
      <trkpt lat="44.47173" lon="1.36245">
        <ele>102.52</ele>
        <time>2026-09-01T08:18:44Z</time>
      </trkpt>
      <trkpt lat="44.47177" lon="1.36262">
        <ele>104.44</ele>
        <time>2026-09-01T08:18:59Z</time>
      </trkpt>
      <trkpt lat="44.47167" lon="1.36266">
        <ele>101.56</ele>
        <time>2026-09-01T08:19:14Z</time>
      </trkpt>
      <trkpt lat="44.47151" lon="1.3627">
        <ele>101.08</ele>
        <time>2026-09-01T08:19:33Z</time>
      </trkpt>
      <trkpt lat="44.47146" lon="1.36268">
        <ele>101.56</ele>
        <time>2026-09-01T08:19:52Z</time>
      </trkpt>
      <trkpt lat="44.47146" lon="1.36267">
        <ele>103.48</ele>
        <time>2026-09-01T08:20:27Z</time>
      </trkpt>
      <trkpt lat="44.47142" lon="1.36273">
        <ele>104.92</ele>
        <time>2026-09-01T08:20:46Z</time>
      </trkpt>
      <trkpt lat="44.4713" lon="1.36284">
        <ele>103.48</ele>
        <time>2026-09-01T08:21:04Z</time>
      </trkpt>
      <trkpt lat="44.47121" lon="1.36291">
        <ele>102.52</ele>
        <time>2026-09-01T08:21:15Z</time>
      </trkpt>
      <trkpt lat="44.47107" lon="1.36299">
        <ele>102.04</ele>
        <time>2026-09-01T08:21:31Z</time>
      </trkpt>
      <trkpt lat="44.47101" lon="1.36301">
        <ele>100.6</ele>
        <time>2026-09-01T08:21:52Z</time>
      </trkpt>
      <trkpt lat="44.47096" lon="1.36311">
        <ele>101.08</ele>
        <time>2026-09-01T08:22:07Z</time>
      </trkpt>
      <trkpt lat="44.47083" lon="1.36323">
        <ele>100.11</ele>
        <time>2026-09-01T08:22:25Z</time>
      </trkpt>
      <trkpt lat="44.47071" lon="1.3633">
        <ele>99.63</ele>
        <time>2026-09-01T08:22:39Z</time>
      </trkpt>
      <trkpt lat="44.47058" lon="1.36341">
        <ele>100.6</ele>
        <time>2026-09-01T08:22:56Z</time>
      </trkpt>
      <trkpt lat="44.47049" lon="1.36351">
        <ele>98.19</ele>
        <time>2026-09-01T08:23:11Z</time>
      </trkpt>
      <trkpt lat="44.47039" lon="1.3636">
        <ele>103.96</ele>
        <time>2026-09-01T08:23:25Z</time>
      </trkpt>
      <trkpt lat="44.47034" lon="1.36367">
        <ele>104.44</ele>
        <time>2026-09-01T08:23:37Z</time>
      </trkpt>
      <trkpt lat="44.47023" lon="1.36377">
        <ele>105.88</ele>
        <time>2026-09-01T08:23:52Z</time>
      </trkpt>
      <trkpt lat="44.47023" lon="1.36395">
        <ele>106.36</ele>
        <time>2026-09-01T08:24:07Z</time>
      </trkpt>
      <trkpt lat="44.47027" lon="1.36405">
        <ele>106.36</ele>
        <time>2026-09-01T08:24:21Z</time>
      </trkpt>
      <trkpt lat="44.4703" lon="1.36409">
        <ele>106.36</ele>
        <time>2026-09-01T08:24:26Z</time>
      </trkpt>
      <trkpt lat="44.47038" lon="1.36422">
        <ele>106.36</ele>
        <time>2026-09-01T08:24:42Z</time>
      </trkpt>
      <trkpt lat="44.47043" lon="1.36428">
        <ele>106.36</ele>
        <time>2026-09-01T08:25:01Z</time>
      </trkpt>
      <trkpt lat="44.47047" lon="1.36434">
        <ele>105.88</ele>
        <time>2026-09-01T08:25:16Z</time>
      </trkpt>
      <trkpt lat="44.47049" lon="1.36445">
        <ele>105.88</ele>
        <time>2026-09-01T08:25:35Z</time>
      </trkpt>
      <trkpt lat="44.47059" lon="1.36464">
        <ele>108.29</ele>
        <time>2026-09-01T08:25:53Z</time>
      </trkpt>
      <trkpt lat="44.47068" lon="1.36485">
        <ele>110.69</ele>
        <time>2026-09-01T08:26:10Z</time>
      </trkpt>
      <trkpt lat="44.47076" lon="1.36503">
        <ele>112.61</ele>
        <time>2026-09-01T08:26:24Z</time>
      </trkpt>
      <trkpt lat="44.47077" lon="1.36505">
        <ele>112.13</ele>
        <time>2026-09-01T08:26:26Z</time>
      </trkpt>
      <trkpt lat="44.47079" lon="1.36509">
        <ele>112.13</ele>
        <time>2026-09-01T08:26:29Z</time>
      </trkpt>
      <trkpt lat="44.47085" lon="1.36526">
        <ele>113.09</ele>
        <time>2026-09-01T08:26:44Z</time>
      </trkpt>
      <trkpt lat="44.47093" lon="1.36548">
        <ele>113.09</ele>
        <time>2026-09-01T08:27:01Z</time>
      </trkpt>
      <trkpt lat="44.47099" lon="1.36568">
        <ele>112.61</ele>
        <time>2026-09-01T08:27:17Z</time>
      </trkpt>
      <trkpt lat="44.47107" lon="1.36589">
        <ele>112.13</ele>
        <time>2026-09-01T08:27:34Z</time>
      </trkpt>
      <trkpt lat="44.47109" lon="1.36597">
        <ele>111.17</ele>
        <time>2026-09-01T08:27:50Z</time>
      </trkpt>
      <trkpt lat="44.4711" lon="1.3661">
        <ele>112.61</ele>
        <time>2026-09-01T08:28:03Z</time>
      </trkpt>
      <trkpt lat="44.47104" lon="1.36626">
        <ele>115.5</ele>
        <time>2026-09-01T08:28:18Z</time>
      </trkpt>
      <trkpt lat="44.47103" lon="1.36627">
        <ele>115.5</ele>
        <time>2026-09-01T08:28:20Z</time>
      </trkpt>
      <trkpt lat="44.47092" lon="1.36643">
        <ele>116.94</ele>
        <time>2026-09-01T08:28:37Z</time>
      </trkpt>
      <trkpt lat="44.47081" lon="1.36655">
        <ele>116.94</ele>
        <time>2026-09-01T08:28:52Z</time>
      </trkpt>
      <trkpt lat="44.47069" lon="1.36672">
        <ele>115.98</ele>
        <time>2026-09-01T08:29:11Z</time>
      </trkpt>
      <trkpt lat="44.47058" lon="1.36686">
        <ele>115.01</ele>
        <time>2026-09-01T08:29:27Z</time>
      </trkpt>
      <trkpt lat="44.47047" lon="1.367">
        <ele>114.53</ele>
        <time>2026-09-01T08:29:47Z</time>
      </trkpt>
      <trkpt lat="44.4704" lon="1.36713">
        <ele>114.53</ele>
        <time>2026-09-01T08:30:00Z</time>
      </trkpt>
      <trkpt lat="44.4703" lon="1.36727">
        <ele>115.5</ele>
        <time>2026-09-01T08:30:15Z</time>
      </trkpt>
      <trkpt lat="44.47021" lon="1.36741">
        <ele>115.98</ele>
        <time>2026-09-01T08:30:30Z</time>
      </trkpt>
      <trkpt lat="44.4702" lon="1.36743">
        <ele>115.5</ele>
        <time>2026-09-01T08:30:42Z</time>
      </trkpt>
      <trkpt lat="44.47019" lon="1.36747">
        <ele>115.01</ele>
        <time>2026-09-01T08:30:58Z</time>
      </trkpt>
      <trkpt lat="44.47011" lon="1.36755">
        <ele>115.5</ele>
        <time>2026-09-01T08:31:12Z</time>
      </trkpt>
      <trkpt lat="44.47" lon="1.36773">
        <ele>115.5</ele>
        <time>2026-09-01T08:31:28Z</time>
      </trkpt>
      <trkpt lat="44.46993" lon="1.36788">
        <ele>115.01</ele>
        <time>2026-09-01T08:31:43Z</time>
      </trkpt>
      <trkpt lat="44.46989" lon="1.36801">
        <ele>114.53</ele>
        <time>2026-09-01T08:31:59Z</time>
      </trkpt>
      <trkpt lat="44.46984" lon="1.36815">
        <ele>115.01</ele>
        <time>2026-09-01T08:32:16Z</time>
      </trkpt>
      <trkpt lat="44.46982" lon="1.36826">
        <ele>114.53</ele>
        <time>2026-09-01T08:32:25Z</time>
      </trkpt>
      <trkpt lat="44.46978" lon="1.36844">
        <ele>115.01</ele>
        <time>2026-09-01T08:32:41Z</time>
      </trkpt>
      <trkpt lat="44.46971" lon="1.36863">
        <ele>114.53</ele>
        <time>2026-09-01T08:32:58Z</time>
      </trkpt>
      <trkpt lat="44.46966" lon="1.36884">
        <ele>114.05</ele>
        <time>2026-09-01T08:33:14Z</time>
      </trkpt>
      <trkpt lat="44.46962" lon="1.36902">
        <ele>114.05</ele>
        <time>2026-09-01T08:33:28Z</time>
      </trkpt>
      <trkpt lat="44.46958" lon="1.36927">
        <ele>114.53</ele>
        <time>2026-09-01T08:33:46Z</time>
      </trkpt>
      <trkpt lat="44.46956" lon="1.36947">
        <ele>114.05</ele>
        <time>2026-09-01T08:34:01Z</time>
      </trkpt>
      <trkpt lat="44.46955" lon="1.36969">
        <ele>112.61</ele>
        <time>2026-09-01T08:34:18Z</time>
      </trkpt>
      <trkpt lat="44.46956" lon="1.36987">
        <ele>112.13</ele>
        <time>2026-09-01T08:34:32Z</time>
      </trkpt>
      <trkpt lat="44.46959" lon="1.3701">
        <ele>112.61</ele>
        <time>2026-09-01T08:34:49Z</time>
      </trkpt>
      <trkpt lat="44.46961" lon="1.3703">
        <ele>113.09</ele>
        <time>2026-09-01T08:35:03Z</time>
      </trkpt>
      <trkpt lat="44.46965" lon="1.37051">
        <ele>112.13</ele>
        <time>2026-09-01T08:35:18Z</time>
      </trkpt>
      <trkpt lat="44.46969" lon="1.37075">
        <ele>111.65</ele>
        <time>2026-09-01T08:35:36Z</time>
      </trkpt>
      <trkpt lat="44.46973" lon="1.37093">
        <ele>112.61</ele>
        <time>2026-09-01T08:35:50Z</time>
      </trkpt>
      <trkpt lat="44.46976" lon="1.37114">
        <ele>112.61</ele>
        <time>2026-09-01T08:36:04Z</time>
      </trkpt>
      <trkpt lat="44.4698" lon="1.37131">
        <ele>112.13</ele>
        <time>2026-09-01T08:36:18Z</time>
      </trkpt>
      <trkpt lat="44.46981" lon="1.37131">
        <ele>112.13</ele>
        <time>2026-09-01T08:36:32Z</time>
      </trkpt>
      <trkpt lat="44.46981" lon="1.37129">
        <ele>110.21</ele>
        <time>2026-09-01T08:36:56Z</time>
      </trkpt>
      <trkpt lat="44.4698" lon="1.3713">
        <ele>111.65</ele>
        <time>2026-09-01T08:37:24Z</time>
      </trkpt>
      <trkpt lat="44.4698" lon="1.37127">
        <ele>109.73</ele>
        <time>2026-09-01T08:37:49Z</time>
      </trkpt>
      <trkpt lat="44.46982" lon="1.37125">
        <ele>110.21</ele>
        <time>2026-09-01T08:38:00Z</time>
      </trkpt>
      <trkpt lat="44.46983" lon="1.37135">
        <ele>112.61</ele>
        <time>2026-09-01T08:38:32Z</time>
      </trkpt>
      <trkpt lat="44.46989" lon="1.37156">
        <ele>113.57</ele>
        <time>2026-09-01T08:38:49Z</time>
      </trkpt>
      <trkpt lat="44.46993" lon="1.37175">
        <ele>114.05</ele>
        <time>2026-09-01T08:39:04Z</time>
      </trkpt>
      <trkpt lat="44.46998" lon="1.37196">
        <ele>113.57</ele>
        <time>2026-09-01T08:39:19Z</time>
      </trkpt>
      <trkpt lat="44.47005" lon="1.37216">
        <ele>112.61</ele>
        <time>2026-09-01T08:39:35Z</time>
      </trkpt>
      <trkpt lat="44.47005" lon="1.37219">
        <ele>112.61</ele>
        <time>2026-09-01T08:39:37Z</time>
      </trkpt>
      <trkpt lat="44.47013" lon="1.37241">
        <ele>112.13</ele>
        <time>2026-09-01T08:39:54Z</time>
      </trkpt>
      <trkpt lat="44.47018" lon="1.37252">
        <ele>112.13</ele>
        <time>2026-09-01T08:40:03Z</time>
      </trkpt>
      <trkpt lat="44.47019" lon="1.37254">
        <ele>111.65</ele>
        <time>2026-09-01T08:40:05Z</time>
      </trkpt>
      <trkpt lat="44.47025" lon="1.37252">
        <ele>111.65</ele>
        <time>2026-09-01T08:40:13Z</time>
      </trkpt>
      <trkpt lat="44.47038" lon="1.37239">
        <ele>113.57</ele>
        <time>2026-09-01T08:40:31Z</time>
      </trkpt>
      <trkpt lat="44.47039" lon="1.37238">
        <ele>114.05</ele>
        <time>2026-09-01T08:40:33Z</time>
      </trkpt>
      <trkpt lat="44.47052" lon="1.3723">
        <ele>115.5</ele>
        <time>2026-09-01T08:40:49Z</time>
      </trkpt>
      <trkpt lat="44.47063" lon="1.37221">
        <ele>117.9</ele>
        <time>2026-09-01T08:41:04Z</time>
      </trkpt>
      <trkpt lat="44.47075" lon="1.37216">
        <ele>117.42</ele>
        <time>2026-09-01T08:41:18Z</time>
      </trkpt>
      <trkpt lat="44.47084" lon="1.37209">
        <ele>116.94</ele>
        <time>2026-09-01T08:41:30Z</time>
      </trkpt>
      <trkpt lat="44.47094" lon="1.37201">
        <ele>116.94</ele>
        <time>2026-09-01T08:41:44Z</time>
      </trkpt>
      <trkpt lat="44.47108" lon="1.37193">
        <ele>116.94</ele>
        <time>2026-09-01T08:41:59Z</time>
      </trkpt>
      <trkpt lat="44.47119" lon="1.37185">
        <ele>117.42</ele>
        <time>2026-09-01T08:42:13Z</time>
      </trkpt>
      <trkpt lat="44.47133" lon="1.37177">
        <ele>117.9</ele>
        <time>2026-09-01T08:42:29Z</time>
      </trkpt>
      <trkpt lat="44.47148" lon="1.37167">
        <ele>117.9</ele>
        <time>2026-09-01T08:42:45Z</time>
      </trkpt>
      <trkpt lat="44.4716" lon="1.37159">
        <ele>116.94</ele>
        <time>2026-09-01T08:42:59Z</time>
      </trkpt>
      <trkpt lat="44.47171" lon="1.37153">
        <ele>116.46</ele>
        <time>2026-09-01T08:43:13Z</time>
      </trkpt>
      <trkpt lat="44.47178" lon="1.37146">
        <ele>118.86</ele>
        <time>2026-09-01T08:43:27Z</time>
      </trkpt>
      <trkpt lat="44.4718" lon="1.37148">
        <ele>117.9</ele>
        <time>2026-09-01T08:43:52Z</time>
      </trkpt>
      <trkpt lat="44.47178" lon="1.37149">
        <ele>117.42</ele>
        <time>2026-09-01T08:44:15Z</time>
      </trkpt>
      <trkpt lat="44.4718" lon="1.37147">
        <ele>115.01</ele>
        <time>2026-09-01T08:44:35Z</time>
      </trkpt>
      <trkpt lat="44.4718" lon="1.37146">
        <ele>116.94</ele>
        <time>2026-09-01T08:44:54Z</time>
      </trkpt>
      <trkpt lat="44.47182" lon="1.37146">
        <ele>120.78</ele>
        <time>2026-09-01T08:45:25Z</time>
      </trkpt>
      <trkpt lat="44.47181" lon="1.37148">
        <ele>120.78</ele>
        <time>2026-09-01T08:45:54Z</time>
      </trkpt>
      <trkpt lat="44.4718" lon="1.37147">
        <ele>123.67</ele>
        <time>2026-09-01T08:46:31Z</time>
      </trkpt>
      <trkpt lat="44.47182" lon="1.37148">
        <ele>123.67</ele>
        <time>2026-09-01T08:46:56Z</time>
      </trkpt>
      <trkpt lat="44.47183" lon="1.37137">
        <ele>124.63</ele>
        <time>2026-09-01T08:47:21Z</time>
      </trkpt>
      <trkpt lat="44.47186" lon="1.37122">
        <ele>122.71</ele>
        <time>2026-09-01T08:47:36Z</time>
      </trkpt>
      <trkpt lat="44.47188" lon="1.37109">
        <ele>122.71</ele>
        <time>2026-09-01T08:47:50Z</time>
      </trkpt>
      <trkpt lat="44.4719" lon="1.37098">
        <ele>122.22</ele>
        <time>2026-09-01T08:48:03Z</time>
      </trkpt>
      <trkpt lat="44.47194" lon="1.37087">
        <ele>119.82</ele>
        <time>2026-09-01T08:48:16Z</time>
      </trkpt>
      <trkpt lat="44.47197" lon="1.37072">
        <ele>117.9</ele>
        <time>2026-09-01T08:48:32Z</time>
      </trkpt>
      <trkpt lat="44.47201" lon="1.37056">
        <ele>117.42</ele>
        <time>2026-09-01T08:48:46Z</time>
      </trkpt>
      <trkpt lat="44.47205" lon="1.37046">
        <ele>116.46</ele>
        <time>2026-09-01T08:48:59Z</time>
      </trkpt>
      <trkpt lat="44.47209" lon="1.3703">
        <ele>118.38</ele>
        <time>2026-09-01T08:49:14Z</time>
      </trkpt>
      <trkpt lat="44.47214" lon="1.37016">
        <ele>118.38</ele>
        <time>2026-09-01T08:49:29Z</time>
      </trkpt>
      <trkpt lat="44.4722" lon="1.37003">
        <ele>118.86</ele>
        <time>2026-09-01T08:49:42Z</time>
      </trkpt>
      <trkpt lat="44.47225" lon="1.3699">
        <ele>118.86</ele>
        <time>2026-09-01T08:49:56Z</time>
      </trkpt>
      <trkpt lat="44.47226" lon="1.36987">
        <ele>118.86</ele>
        <time>2026-09-01T08:49:59Z</time>
      </trkpt>
      <trkpt lat="44.47234" lon="1.36974">
        <ele>117.9</ele>
        <time>2026-09-01T08:50:14Z</time>
      </trkpt>
      <trkpt lat="44.47241" lon="1.36959">
        <ele>117.9</ele>
        <time>2026-09-01T08:50:30Z</time>
      </trkpt>
      <trkpt lat="44.47249" lon="1.36949">
        <ele>117.9</ele>
        <time>2026-09-01T08:50:44Z</time>
      </trkpt>
      <trkpt lat="44.47259" lon="1.36937">
        <ele>119.82</ele>
        <time>2026-09-01T08:50:59Z</time>
      </trkpt>
      <trkpt lat="44.47266" lon="1.36927">
        <ele>121.74</ele>
        <time>2026-09-01T08:51:12Z</time>
      </trkpt>
      <trkpt lat="44.4727" lon="1.36921">
        <ele>120.78</ele>
        <time>2026-09-01T08:51:24Z</time>
      </trkpt>
      <trkpt lat="44.47279" lon="1.36909">
        <ele>118.38</ele>
        <time>2026-09-01T08:51:39Z</time>
      </trkpt>
      <trkpt lat="44.47288" lon="1.369">
        <ele>115.5</ele>
        <time>2026-09-01T08:51:54Z</time>
      </trkpt>
      <trkpt lat="44.47297" lon="1.36889">
        <ele>115.5</ele>
        <time>2026-09-01T08:52:09Z</time>
      </trkpt>
      <trkpt lat="44.47305" lon="1.36883">
        <ele>112.61</ele>
        <time>2026-09-01T08:52:23Z</time>
      </trkpt>
      <trkpt lat="44.47313" lon="1.36873">
        <ele>110.21</ele>
        <time>2026-09-01T08:52:38Z</time>
      </trkpt>
      <trkpt lat="44.4732" lon="1.36869">
        <ele>107.81</ele>
        <time>2026-09-01T08:52:54Z</time>
      </trkpt>
      <trkpt lat="44.47322" lon="1.36865">
        <ele>111.65</ele>
        <time>2026-09-01T08:53:14Z</time>
      </trkpt>
      <trkpt lat="44.47323" lon="1.36863">
        <ele>117.42</ele>
        <time>2026-09-01T08:53:37Z</time>
      </trkpt>
      <trkpt lat="44.47327" lon="1.36866">
        <ele>122.22</ele>
        <time>2026-09-01T08:53:50Z</time>
      </trkpt>
      <trkpt lat="44.47331" lon="1.36872">
        <ele>127.51</ele>
        <time>2026-09-01T08:54:06Z</time>
      </trkpt>
      <trkpt lat="44.47335" lon="1.36879">
        <ele>130.88</ele>
        <time>2026-09-01T08:54:24Z</time>
      </trkpt>
      <trkpt lat="44.47341" lon="1.36888">
        <ele>135.68</ele>
        <time>2026-09-01T08:54:42Z</time>
      </trkpt>
      <trkpt lat="44.47351" lon="1.36907">
        <ele>134.72</ele>
        <time>2026-09-01T08:54:59Z</time>
      </trkpt>
      <trkpt lat="44.47362" lon="1.36922">
        <ele>135.2</ele>
        <time>2026-09-01T08:55:15Z</time>
      </trkpt>
      <trkpt lat="44.4737" lon="1.36933">
        <ele>137.13</ele>
        <time>2026-09-01T08:55:31Z</time>
      </trkpt>
      <trkpt lat="44.4737" lon="1.36938">
        <ele>136.64</ele>
        <time>2026-09-01T08:55:47Z</time>
      </trkpt>
      <trkpt lat="44.47377" lon="1.36932">
        <ele>135.68</ele>
        <time>2026-09-01T08:56:08Z</time>
      </trkpt>
      <trkpt lat="44.47378" lon="1.36935">
        <ele>140.01</ele>
        <time>2026-09-01T08:56:27Z</time>
      </trkpt>
      <trkpt lat="44.47372" lon="1.36939">
        <ele>139.53</ele>
        <time>2026-09-01T08:56:40Z</time>
      </trkpt>
      <trkpt lat="44.4737" lon="1.36941">
        <ele>138.57</ele>
        <time>2026-09-01T08:56:58Z</time>
      </trkpt>
      <trkpt lat="44.47375" lon="1.36936">
        <ele>139.53</ele>
        <time>2026-09-01T08:57:19Z</time>
      </trkpt>
      <trkpt lat="44.47387" lon="1.36928">
        <ele>142.89</ele>
        <time>2026-09-01T08:57:34Z</time>
      </trkpt>
      <trkpt lat="44.47387" lon="1.36927">
        <ele>142.89</ele>
        <time>2026-09-01T08:57:35Z</time>
      </trkpt>
      <trkpt lat="44.47402" lon="1.36918">
        <ele>143.85</ele>
        <time>2026-09-01T08:57:53Z</time>
      </trkpt>
      <trkpt lat="44.47415" lon="1.36911">
        <ele>143.37</ele>
        <time>2026-09-01T08:58:09Z</time>
      </trkpt>
      <trkpt lat="44.47426" lon="1.36903">
        <ele>142.41</ele>
        <time>2026-09-01T08:58:23Z</time>
      </trkpt>
      <trkpt lat="44.47439" lon="1.36896">
        <ele>141.93</ele>
        <time>2026-09-01T08:58:38Z</time>
      </trkpt>
      <trkpt lat="44.47456" lon="1.36888">
        <ele>141.93</ele>
        <time>2026-09-01T08:58:57Z</time>
      </trkpt>
      <trkpt lat="44.47472" lon="1.36878">
        <ele>141.45</ele>
        <time>2026-09-01T08:59:16Z</time>
      </trkpt>
      <trkpt lat="44.47485" lon="1.3687">
        <ele>140.01</ele>
        <time>2026-09-01T08:59:32Z</time>
      </trkpt>
      <trkpt lat="44.47498" lon="1.36863">
        <ele>139.05</ele>
        <time>2026-09-01T08:59:47Z</time>
      </trkpt>
      <trkpt lat="44.47513" lon="1.36852">
        <ele>139.53</ele>
        <time>2026-09-01T09:00:05Z</time>
      </trkpt>
      <trkpt lat="44.47524" lon="1.36844">
        <ele>140.49</ele>
        <time>2026-09-01T09:00:22Z</time>
      </trkpt>
      <trkpt lat="44.47524" lon="1.36844">
        <ele>140.49</ele>
        <time>2026-09-01T09:00:43Z</time>
      </trkpt>
      <trkpt lat="44.47529" lon="1.36843">
        <ele>141.45</ele>
        <time>2026-09-01T09:00:59Z</time>
      </trkpt>
      <trkpt lat="44.47547" lon="1.36842">
        <ele>141.45</ele>
        <time>2026-09-01T09:01:17Z</time>
      </trkpt>
      <trkpt lat="44.47566" lon="1.36845">
        <ele>140.97</ele>
        <time>2026-09-01T09:01:35Z</time>
      </trkpt>
      <trkpt lat="44.47586" lon="1.36846">
        <ele>140.97</ele>
        <time>2026-09-01T09:01:54Z</time>
      </trkpt>
      <trkpt lat="44.47599" lon="1.36846">
        <ele>140.97</ele>
        <time>2026-09-01T09:02:12Z</time>
      </trkpt>
      <trkpt lat="44.47604" lon="1.36844">
        <ele>139.53</ele>
        <time>2026-09-01T09:02:24Z</time>
      </trkpt>
      <trkpt lat="44.47617" lon="1.36841">
        <ele>139.53</ele>
        <time>2026-09-01T09:02:39Z</time>
      </trkpt>
      <trkpt lat="44.47615" lon="1.36838">
        <ele>139.53</ele>
        <time>2026-09-01T09:02:55Z</time>
      </trkpt>
      <trkpt lat="44.47627" lon="1.36837">
        <ele>139.53</ele>
        <time>2026-09-01T09:03:08Z</time>
      </trkpt>
      <trkpt lat="44.47639" lon="1.36836">
        <ele>139.53</ele>
        <time>2026-09-01T09:03:21Z</time>
      </trkpt>
      <trkpt lat="44.47651" lon="1.36842">
        <ele>138.57</ele>
        <time>2026-09-01T09:03:36Z</time>
      </trkpt>
      <trkpt lat="44.4766" lon="1.3685">
        <ele>138.57</ele>
        <time>2026-09-01T09:03:49Z</time>
      </trkpt>
      <trkpt lat="44.47674" lon="1.36858">
        <ele>138.57</ele>
        <time>2026-09-01T09:04:05Z</time>
      </trkpt>
      <trkpt lat="44.47687" lon="1.36864">
        <ele>137.13</ele>
        <time>2026-09-01T09:04:21Z</time>
      </trkpt>
      <trkpt lat="44.47696" lon="1.3687">
        <ele>139.05</ele>
        <time>2026-09-01T09:04:36Z</time>
      </trkpt>
      <trkpt lat="44.47704" lon="1.36877">
        <ele>143.37</ele>
        <time>2026-09-01T09:04:54Z</time>
      </trkpt>
      <trkpt lat="44.47722" lon="1.36894">
        <ele>142.41</ele>
        <time>2026-09-01T09:05:13Z</time>
      </trkpt>
      <trkpt lat="44.47731" lon="1.36901">
        <ele>141.93</ele>
        <time>2026-09-01T09:05:25Z</time>
      </trkpt>
      <trkpt lat="44.47745" lon="1.36913">
        <ele>141.93</ele>
        <time>2026-09-01T09:05:40Z</time>
      </trkpt>
      <trkpt lat="44.47755" lon="1.36922">
        <ele>141.45</ele>
        <time>2026-09-01T09:05:53Z</time>
      </trkpt>
      <trkpt lat="44.47758" lon="1.36924">
        <ele>141.45</ele>
        <time>2026-09-01T09:06:08Z</time>
      </trkpt>
      <trkpt lat="44.47766" lon="1.36923">
        <ele>140.97</ele>
        <time>2026-09-01T09:06:21Z</time>
      </trkpt>
      <trkpt lat="44.47776" lon="1.36933">
        <ele>140.01</ele>
        <time>2026-09-01T09:06:36Z</time>
      </trkpt>
      <trkpt lat="44.47785" lon="1.3694">
        <ele>141.45</ele>
        <time>2026-09-01T09:06:50Z</time>
      </trkpt>
      <trkpt lat="44.47789" lon="1.36939">
        <ele>142.41</ele>
        <time>2026-09-01T09:07:03Z</time>
      </trkpt>
      <trkpt lat="44.4779" lon="1.36936">
        <ele>142.41</ele>
        <time>2026-09-01T09:07:05Z</time>
      </trkpt>
      <trkpt lat="44.4779" lon="1.36918">
        <ele>142.41</ele>
        <time>2026-09-01T09:07:19Z</time>
      </trkpt>
      <trkpt lat="44.47793" lon="1.36897">
        <ele>144.82</ele>
        <time>2026-09-01T09:07:36Z</time>
      </trkpt>
      <trkpt lat="44.47795" lon="1.36881">
        <ele>144.34</ele>
        <time>2026-09-01T09:07:50Z</time>
      </trkpt>
      <trkpt lat="44.47797" lon="1.36867">
        <ele>144.34</ele>
        <time>2026-09-01T09:08:03Z</time>
      </trkpt>
      <trkpt lat="44.47802" lon="1.3685">
        <ele>144.82</ele>
        <time>2026-09-01T09:08:18Z</time>
      </trkpt>
      <trkpt lat="44.47806" lon="1.3684">
        <ele>143.85</ele>
        <time>2026-09-01T09:08:34Z</time>
      </trkpt>
      <trkpt lat="44.47806" lon="1.36845">
        <ele>141.45</ele>
        <time>2026-09-01T09:08:58Z</time>
      </trkpt>
      <trkpt lat="44.47811" lon="1.36848">
        <ele>140.97</ele>
        <time>2026-09-01T09:09:13Z</time>
      </trkpt>
      <trkpt lat="44.47817" lon="1.36852">
        <ele>142.89</ele>
        <time>2026-09-01T09:09:29Z</time>
      </trkpt>
      <trkpt lat="44.47827" lon="1.36858">
        <ele>143.85</ele>
        <time>2026-09-01T09:09:43Z</time>
      </trkpt>
      <trkpt lat="44.47837" lon="1.36866">
        <ele>143.85</ele>
        <time>2026-09-01T09:09:57Z</time>
      </trkpt>
      <trkpt lat="44.47843" lon="1.3687">
        <ele>144.34</ele>
        <time>2026-09-01T09:10:08Z</time>
      </trkpt>
      <trkpt lat="44.47857" lon="1.36881">
        <ele>145.78</ele>
        <time>2026-09-01T09:10:25Z</time>
      </trkpt>
      <trkpt lat="44.47867" lon="1.36889">
        <ele>146.74</ele>
        <time>2026-09-01T09:10:39Z</time>
      </trkpt>
      <trkpt lat="44.47879" lon="1.36898">
        <ele>147.22</ele>
        <time>2026-09-01T09:10:55Z</time>
      </trkpt>
      <trkpt lat="44.47884" lon="1.36895">
        <ele>146.74</ele>
        <time>2026-09-01T09:11:10Z</time>
      </trkpt>
      <trkpt lat="44.47888" lon="1.36882">
        <ele>146.74</ele>
        <time>2026-09-01T09:11:26Z</time>
      </trkpt>
      <trkpt lat="44.47893" lon="1.36866">
        <ele>146.26</ele>
        <time>2026-09-01T09:11:41Z</time>
      </trkpt>
      <trkpt lat="44.47899" lon="1.3685">
        <ele>145.3</ele>
        <time>2026-09-01T09:11:57Z</time>
      </trkpt>
      <trkpt lat="44.479" lon="1.36846">
        <ele>144.82</ele>
        <time>2026-09-01T09:12:00Z</time>
      </trkpt>
      <trkpt lat="44.47907" lon="1.36832">
        <ele>143.37</ele>
        <time>2026-09-01T09:12:14Z</time>
      </trkpt>
      <trkpt lat="44.47913" lon="1.36813">
        <ele>143.37</ele>
        <time>2026-09-01T09:12:31Z</time>
      </trkpt>
      <trkpt lat="44.47921" lon="1.36795">
        <ele>143.37</ele>
        <time>2026-09-01T09:12:47Z</time>
      </trkpt>
      <trkpt lat="44.47926" lon="1.36779">
        <ele>142.89</ele>
        <time>2026-09-01T09:13:02Z</time>
      </trkpt>
      <trkpt lat="44.47932" lon="1.36761">
        <ele>142.41</ele>
        <time>2026-09-01T09:13:18Z</time>
      </trkpt>
      <trkpt lat="44.47938" lon="1.36742">
        <ele>142.41</ele>
        <time>2026-09-01T09:13:33Z</time>
      </trkpt>
      <trkpt lat="44.47942" lon="1.36724">
        <ele>141.93</ele>
        <time>2026-09-01T09:13:48Z</time>
      </trkpt>
      <trkpt lat="44.47945" lon="1.36707">
        <ele>141.45</ele>
        <time>2026-09-01T09:14:03Z</time>
      </trkpt>
      <trkpt lat="44.47948" lon="1.36696">
        <ele>140.49</ele>
        <time>2026-09-01T09:14:23Z</time>
      </trkpt>
      <trkpt lat="44.47955" lon="1.3668">
        <ele>139.05</ele>
        <time>2026-09-01T09:14:38Z</time>
      </trkpt>
      <trkpt lat="44.47969" lon="1.36686">
        <ele>140.49</ele>
        <time>2026-09-01T09:14:53Z</time>
      </trkpt>
      <trkpt lat="44.47984" lon="1.36694">
        <ele>140.97</ele>
        <time>2026-09-01T09:15:10Z</time>
      </trkpt>
      <trkpt lat="44.47995" lon="1.36701">
        <ele>140.97</ele>
        <time>2026-09-01T09:15:24Z</time>
      </trkpt>
      <trkpt lat="44.48008" lon="1.3671">
        <ele>141.45</ele>
        <time>2026-09-01T09:15:40Z</time>
      </trkpt>
      <trkpt lat="44.4802" lon="1.36717">
        <ele>140.49</ele>
        <time>2026-09-01T09:15:55Z</time>
      </trkpt>
      <trkpt lat="44.48033" lon="1.36724">
        <ele>139.53</ele>
        <time>2026-09-01T09:16:11Z</time>
      </trkpt>
      <trkpt lat="44.48047" lon="1.3673">
        <ele>138.57</ele>
        <time>2026-09-01T09:16:26Z</time>
      </trkpt>
      <trkpt lat="44.48059" lon="1.36738">
        <ele>138.09</ele>
        <time>2026-09-01T09:16:40Z</time>
      </trkpt>
      <trkpt lat="44.48073" lon="1.36747">
        <ele>137.61</ele>
        <time>2026-09-01T09:16:58Z</time>
      </trkpt>
      <trkpt lat="44.48088" lon="1.36756">
        <ele>138.09</ele>
        <time>2026-09-01T09:17:15Z</time>
      </trkpt>
      <trkpt lat="44.48093" lon="1.36757">
        <ele>138.09</ele>
        <time>2026-09-01T09:17:29Z</time>
      </trkpt>
      <trkpt lat="44.48093" lon="1.36757">
        <ele>138.57</ele>
        <time>2026-09-01T09:17:51Z</time>
      </trkpt>
      <trkpt lat="44.48092" lon="1.36755">
        <ele>139.53</ele>
        <time>2026-09-01T09:18:20Z</time>
      </trkpt>
      <trkpt lat="44.48091" lon="1.36757">
        <ele>138.57</ele>
        <time>2026-09-01T09:18:49Z</time>
      </trkpt>
      <trkpt lat="44.48094" lon="1.36751">
        <ele>137.61</ele>
        <time>2026-09-01T09:19:13Z</time>
      </trkpt>
      <trkpt lat="44.48103" lon="1.36742">
        <ele>134.72</ele>
        <time>2026-09-01T09:19:27Z</time>
      </trkpt>
      <trkpt lat="44.48113" lon="1.36727">
        <ele>133.28</ele>
        <time>2026-09-01T09:19:43Z</time>
      </trkpt>
      <trkpt lat="44.48121" lon="1.36714">
        <ele>133.28</ele>
        <time>2026-09-01T09:19:57Z</time>
      </trkpt>
      <trkpt lat="44.48128" lon="1.36699">
        <ele>132.8</ele>
        <time>2026-09-01T09:20:15Z</time>
      </trkpt>
      <trkpt lat="44.48135" lon="1.36687">
        <ele>132.8</ele>
        <time>2026-09-01T09:20:30Z</time>
      </trkpt>
      <trkpt lat="44.48141" lon="1.36673">
        <ele>130.88</ele>
        <time>2026-09-01T09:20:48Z</time>
      </trkpt>
      <trkpt lat="44.48148" lon="1.36661">
        <ele>128.95</ele>
        <time>2026-09-01T09:21:05Z</time>
      </trkpt>
      <trkpt lat="44.48153" lon="1.36651">
        <ele>127.03</ele>
        <time>2026-09-01T09:21:19Z</time>
      </trkpt>
      <trkpt lat="44.48158" lon="1.36639">
        <ele>126.55</ele>
        <time>2026-09-01T09:21:35Z</time>
      </trkpt>
      <trkpt lat="44.48157" lon="1.36632">
        <ele>126.55</ele>
        <time>2026-09-01T09:21:48Z</time>
      </trkpt>
      <trkpt lat="44.48149" lon="1.36621">
        <ele>125.11</ele>
        <time>2026-09-01T09:22:03Z</time>
      </trkpt>
      <trkpt lat="44.48142" lon="1.3661">
        <ele>121.74</ele>
        <time>2026-09-01T09:22:18Z</time>
      </trkpt>
      <trkpt lat="44.48135" lon="1.36596">
        <ele>119.82</ele>
        <time>2026-09-01T09:22:35Z</time>
      </trkpt>
      <trkpt lat="44.48131" lon="1.36586">
        <ele>118.86</ele>
        <time>2026-09-01T09:22:47Z</time>
      </trkpt>
      <trkpt lat="44.48132" lon="1.36574">
        <ele>119.82</ele>
        <time>2026-09-01T09:22:59Z</time>
      </trkpt>
      <trkpt lat="44.48137" lon="1.36576">
        <ele>119.34</ele>
        <time>2026-09-01T09:23:12Z</time>
      </trkpt>
      <trkpt lat="44.48139" lon="1.36574">
        <ele>121.26</ele>
        <time>2026-09-01T09:23:42Z</time>
      </trkpt>
      <trkpt lat="44.48138" lon="1.36577">
        <ele>121.26</ele>
        <time>2026-09-01T09:24:05Z</time>
      </trkpt>
      <trkpt lat="44.48135" lon="1.36579">
        <ele>120.3</ele>
        <time>2026-09-01T09:24:27Z</time>
      </trkpt>
      <trkpt lat="44.48133" lon="1.36578">
        <ele>119.82</ele>
        <time>2026-09-01T09:24:53Z</time>
      </trkpt>
      <trkpt lat="44.48133" lon="1.36577">
        <ele>119.82</ele>
        <time>2026-09-01T09:25:08Z</time>
      </trkpt>
      <trkpt lat="44.48131" lon="1.36574">
        <ele>123.19</ele>
        <time>2026-09-01T09:25:35Z</time>
      </trkpt>
      <trkpt lat="44.48132" lon="1.36576">
        <ele>123.67</ele>
        <time>2026-09-01T09:25:57Z</time>
      </trkpt>
      <trkpt lat="44.48133" lon="1.36577">
        <ele>122.22</ele>
        <time>2026-09-01T09:26:22Z</time>
      </trkpt>
      <trkpt lat="44.48132" lon="1.3658">
        <ele>121.74</ele>
        <time>2026-09-01T09:26:48Z</time>
      </trkpt>
      <trkpt lat="44.48133" lon="1.36579">
        <ele>122.22</ele>
        <time>2026-09-01T09:27:05Z</time>
      </trkpt>
      <trkpt lat="44.48134" lon="1.36582">
        <ele>119.34</ele>
        <time>2026-09-01T09:27:23Z</time>
      </trkpt>
      <trkpt lat="44.48137" lon="1.36576">
        <ele>120.3</ele>
        <time>2026-09-01T09:27:39Z</time>
      </trkpt>
      <trkpt lat="44.4814" lon="1.36577">
        <ele>120.78</ele>
        <time>2026-09-01T09:27:57Z</time>
      </trkpt>
      <trkpt lat="44.48145" lon="1.36582">
        <ele>121.74</ele>
        <time>2026-09-01T09:28:14Z</time>
      </trkpt>
      <trkpt lat="44.48157" lon="1.36579">
        <ele>118.86</ele>
        <time>2026-09-01T09:28:31Z</time>
      </trkpt>
      <trkpt lat="44.48171" lon="1.36576">
        <ele>116.46</ele>
        <time>2026-09-01T09:28:49Z</time>
      </trkpt>
      <trkpt lat="44.48185" lon="1.36587">
        <ele>110.69</ele>
        <time>2026-09-01T09:29:08Z</time>
      </trkpt>
      <trkpt lat="44.48197" lon="1.36601">
        <ele>108.77</ele>
        <time>2026-09-01T09:29:23Z</time>
      </trkpt>
      <trkpt lat="44.48199" lon="1.36606">
        <ele>109.25</ele>
        <time>2026-09-01T09:29:27Z</time>
      </trkpt>
      <trkpt lat="44.48212" lon="1.36627">
        <ele>109.73</ele>
        <time>2026-09-01T09:29:44Z</time>
      </trkpt>
      <trkpt lat="44.4822" lon="1.36645">
        <ele>110.69</ele>
        <time>2026-09-01T09:30:00Z</time>
      </trkpt>
      <trkpt lat="44.48235" lon="1.36636">
        <ele>112.13</ele>
        <time>2026-09-01T09:30:16Z</time>
      </trkpt>
      <trkpt lat="44.48236" lon="1.36622">
        <ele>113.09</ele>
        <time>2026-09-01T09:30:28Z</time>
        <extensions>
          <visugpx:TrkExtension xmlns:visugpx="https://www.visugpx.com/editgpx/">
            <visugpx:node>1</visugpx:node>
            </visugpx:TrkExtension>
        </extensions>
      </trkpt>
    </trkseg>
  </trk>
</gpx>